sensor_id;sensor_type;location;lat;lon;timestamp;temperature;humidity
76878;DHT22;65843;50.692;12.844;2023-04-28T00:00:20;20.30;46.20
76878;DHT22;65843;50.692;12.844;2023-04-28T00:01:21;20.30;46.20
76878;DHT22;65843;50.692;12.844;2023-04-28T00:02:22;20.20;46.20
76878;DHT22;65843;50.692;12.844;2023-04-28T00:03:24;20.20;46.20
76878;DHT22;65843;50.692;12.844;2023-04-28T00:04:24;20.30;46.20
76878;DHT22;65843;50.692;12.844;2023-04-28T00:05:26;20.20;46.20
76878;DHT22;65843;50.692;12.844;2023-04-28T00:06:27;20.30;46.20
76878;DHT22;65843;50.692;12.844;2023-04-28T00:07:30;20.30;46.20
76878;DHT22;65843;50.692;12.844;2023-04-28T00:08:31;20.20;46.20
76878;DHT22;65843;50.692;12.844;2023-04-28T00:09:32;20.20;46.10
76878;DHT22;65843;50.692;12.844;2023-04-28T00:10:33;20.20;46.10
76878;DHT22;65843;50.692;12.844;2023-04-28T00:11:34;20.20;46.00
76878;DHT22;65843;50.692;12.844;2023-04-28T00:12:35;20.20;46.00
76878;DHT22;65843;50.692;12.844;2023-04-28T00:13:36;20.20;46.00
76878;DHT22;65843;50.692;12.844;2023-04-28T00:14:37;20.20;46.00
76878;DHT22;65843;50.692;12.844;2023-04-28T00:15:38;20.20;46.10
76878;DHT22;65843;50.692;12.844;2023-04-28T00:16:39;20.20;46.10
76878;DHT22;65843;50.692;12.844;2023-04-28T00:17:40;20.20;46.10
76878;DHT22;65843;50.692;12.844;2023-04-28T00:18:41;20.20;46.20
76878;DHT22;65843;50.692;12.844;2023-04-28T00:19:42;20.20;46.10
76878;DHT22;65843;50.692;12.844;2023-04-28T00:20:44;20.20;46.10
76878;DHT22;65843;50.692;12.844;2023-04-28T00:21:45;20.20;46.00
76878;DHT22;65843;50.692;12.844;2023-04-28T00:22:46;20.20;46.10
76878;DHT22;65843;50.692;12.844;2023-04-28T00:23:49;20.20;46.10
76878;DHT22;65843;50.692;12.844;2023-04-28T00:24:50;20.20;46.10
76878;DHT22;65843;50.692;12.844;2023-04-28T00:25:51;20.20;46.00
76878;DHT22;65843;50.692;12.844;2023-04-28T00:26:52;20.20;46.00
76878;DHT22;65843;50.692;12.844;2023-04-28T00:27:53;20.20;45.90
76878;DHT22;65843;50.692;12.844;2023-04-28T00:28:54;20.20;46.00
76878;DHT22;65843;50.692;12.844;2023-04-28T00:29:55;20.20;46.00
76878;DHT22;65843;50.692;12.844;2023-04-28T00:30:56;20.20;46.00
76878;DHT22;65843;50.692;12.844;2023-04-28T00:31:57;20.20;45.90
76878;DHT22;65843;50.692;12.844;2023-04-28T00:32:58;20.20;45.90
76878;DHT22;65843;50.692;12.844;2023-04-28T00:33:58;20.20;45.90
76878;DHT22;65843;50.692;12.844;2023-04-28T00:34:59;20.20;45.70
76878;DHT22;65843;50.692;12.844;2023-04-28T00:36:00;20.20;45.70
76878;DHT22;65843;50.692;12.844;2023-04-28T00:37:02;20.20;45.70
76878;DHT22;65843;50.692;12.844;2023-04-28T00:38:03;20.20;45.70
76878;DHT22;65843;50.692;12.844;2023-04-28T00:39:04;20.10;45.70
76878;DHT22;65843;50.692;12.844;2023-04-28T00:40:05;20.10;45.70
76878;DHT22;65843;50.692;12.844;2023-04-28T00:41:08;20.10;45.60
76878;DHT22;65843;50.692;12.844;2023-04-28T00:42:09;20.10;45.60
76878;DHT22;65843;50.692;12.844;2023-04-28T00:43:10;20.10;45.50
76878;DHT22;65843;50.692;12.844;2023-04-28T00:44:11;20.10;45.50
76878;DHT22;65843;50.692;12.844;2023-04-28T00:45:12;20.10;45.50
76878;DHT22;65843;50.692;12.844;2023-04-28T00:46:20;20.10;45.50
76878;DHT22;65843;50.692;12.844;2023-04-28T00:47:22;20.10;45.50
76878;DHT22;65843;50.692;12.844;2023-04-28T00:48:23;20.10;45.50
76878;DHT22;65843;50.692;12.844;2023-04-28T00:49:24;20.10;45.40
76878;DHT22;65843;50.692;12.844;2023-04-28T00:50:25;20.10;45.50
76878;DHT22;65843;50.692;12.844;2023-04-28T00:51:26;20.10;45.40
76878;DHT22;65843;50.692;12.844;2023-04-28T00:52:28;20.10;45.40
76878;DHT22;65843;50.692;12.844;2023-04-28T00:53:29;20.10;45.40
76878;DHT22;65843;50.692;12.844;2023-04-28T00:54:31;20.10;45.40
76878;DHT22;65843;50.692;12.844;2023-04-28T00:55:32;20.10;45.30
76878;DHT22;65843;50.692;12.844;2023-04-28T00:56:34;20.10;45.30
76878;DHT22;65843;50.692;12.844;2023-04-28T00:57:35;20.10;45.30
76878;DHT22;65843;50.692;12.844;2023-04-28T00:58:36;20.10;45.30
76878;DHT22;65843;50.692;12.844;2023-04-28T00:59:37;20.10;45.20
76878;DHT22;65843;50.692;12.844;2023-04-28T01:00:38;20.10;45.20
76878;DHT22;65843;50.692;12.844;2023-04-28T01:01:40;20.10;45.30
76878;DHT22;65843;50.692;12.844;2023-04-28T01:02:41;20.10;45.20
76878;DHT22;65843;50.692;12.844;2023-04-28T01:03:42;20.10;45.20
76878;DHT22;65843;50.692;12.844;2023-04-28T01:04:44;20.10;45.10
76878;DHT22;65843;50.692;12.844;2023-04-28T01:05:45;20.10;45.10
76878;DHT22;65843;50.692;12.844;2023-04-28T01:06:46;20.10;45.00
76878;DHT22;65843;50.692;12.844;2023-04-28T01:07:47;20.10;45.00
76878;DHT22;65843;50.692;12.844;2023-04-28T01:08:48;20.10;45.10
76878;DHT22;65843;50.692;12.844;2023-04-28T01:09:50;20.10;44.90
76878;DHT22;65843;50.692;12.844;2023-04-28T01:10:51;20.10;44.90
76878;DHT22;65843;50.692;12.844;2023-04-28T01:11:52;20.10;44.90
76878;DHT22;65843;50.692;12.844;2023-04-28T01:12:53;20.10;44.90
76878;DHT22;65843;50.692;12.844;2023-04-28T01:13:54;20.00;44.90
76878;DHT22;65843;50.692;12.844;2023-04-28T01:14:56;20.00;45.00
76878;DHT22;65843;50.692;12.844;2023-04-28T01:15:57;20.00;44.90
76878;DHT22;65843;50.692;12.844;2023-04-28T01:16:58;20.00;45.00
76878;DHT22;65843;50.692;12.844;2023-04-28T01:17:59;20.00;44.90
76878;DHT22;65843;50.692;12.844;2023-04-28T01:19:00;20.00;44.90
76878;DHT22;65843;50.692;12.844;2023-04-28T01:20:02;20.00;45.00
76878;DHT22;65843;50.692;12.844;2023-04-28T01:21:04;20.00;44.90
76878;DHT22;65843;50.692;12.844;2023-04-28T01:22:05;20.00;44.90
76878;DHT22;65843;50.692;12.844;2023-04-28T01:23:12;20.00;44.90
76878;DHT22;65843;50.692;12.844;2023-04-28T01:24:13;20.00;44.90
76878;DHT22;65843;50.692;12.844;2023-04-28T01:25:15;20.00;45.00
76878;DHT22;65843;50.692;12.844;2023-04-28T01:26:16;20.00;44.90
76878;DHT22;65843;50.692;12.844;2023-04-28T01:27:17;20.00;44.90
76878;DHT22;65843;50.692;12.844;2023-04-28T01:28:17;20.00;44.90
76878;DHT22;65843;50.692;12.844;2023-04-28T01:29:18;20.00;44.90
76878;DHT22;65843;50.692;12.844;2023-04-28T01:30:19;20.00;44.80
76878;DHT22;65843;50.692;12.844;2023-04-28T01:31:20;20.00;44.70
76878;DHT22;65843;50.692;12.844;2023-04-28T01:32:21;20.00;44.70
76878;DHT22;65843;50.692;12.844;2023-04-28T01:33:22;20.00;44.70
76878;DHT22;65843;50.692;12.844;2023-04-28T01:34:23;20.00;44.70
76878;DHT22;65843;50.692;12.844;2023-04-28T01:35:24;20.00;44.70
76878;DHT22;65843;50.692;12.844;2023-04-28T01:36:25;20.00;44.60
76878;DHT22;65843;50.692;12.844;2023-04-28T01:37:27;20.00;44.60
76878;DHT22;65843;50.692;12.844;2023-04-28T01:38:27;20.00;44.50
76878;DHT22;65843;50.692;12.844;2023-04-28T01:39:28;20.00;44.50
76878;DHT22;65843;50.692;12.844;2023-04-28T01:40:30;20.00;44.50
76878;DHT22;65843;50.692;12.844;2023-04-28T01:41:31;20.00;44.50
76878;DHT22;65843;50.692;12.844;2023-04-28T01:42:34;20.00;44.50
76878;DHT22;65843;50.692;12.844;2023-04-28T01:43:35;20.00;44.40
76878;DHT22;65843;50.692;12.844;2023-04-28T01:44:35;20.00;44.50
76878;DHT22;65843;50.692;12.844;2023-04-28T01:45:36;20.00;44.50
76878;DHT22;65843;50.692;12.844;2023-04-28T01:46:37;20.00;44.50
76878;DHT22;65843;50.692;12.844;2023-04-28T01:47:38;20.00;44.50
76878;DHT22;65843;50.692;12.844;2023-04-28T01:48:39;20.00;44.40
76878;DHT22;65843;50.692;12.844;2023-04-28T01:49:40;20.00;44.40
76878;DHT22;65843;50.692;12.844;2023-04-28T01:50:41;20.00;44.40
76878;DHT22;65843;50.692;12.844;2023-04-28T01:51:42;20.00;44.50
76878;DHT22;65843;50.692;12.844;2023-04-28T01:52:43;20.00;44.50
76878;DHT22;65843;50.692;12.844;2023-04-28T01:53:44;20.00;44.30
76878;DHT22;65843;50.692;12.844;2023-04-28T01:54:45;20.00;44.30
76878;DHT22;65843;50.692;12.844;2023-04-28T01:55:46;20.00;44.40
76878;DHT22;65843;50.692;12.844;2023-04-28T01:56:47;19.90;44.40
76878;DHT22;65843;50.692;12.844;2023-04-28T01:57:48;20.00;44.40
76878;DHT22;65843;50.692;12.844;2023-04-28T01:58:48;20.00;44.40
76878;DHT22;65843;50.692;12.844;2023-04-28T01:59:49;20.00;44.40
76878;DHT22;65843;50.692;12.844;2023-04-28T02:00:50;19.90;44.30
76878;DHT22;65843;50.692;12.844;2023-04-28T02:01:51;20.00;44.30
76878;DHT22;65843;50.692;12.844;2023-04-28T02:02:52;20.00;44.30
76878;DHT22;65843;50.692;12.844;2023-04-28T02:03:53;20.00;44.30
76878;DHT22;65843;50.692;12.844;2023-04-28T02:04:55;20.00;44.30
76878;DHT22;65843;50.692;12.844;2023-04-28T02:05:57;19.90;44.30
76878;DHT22;65843;50.692;12.844;2023-04-28T02:06:58;20.00;44.30
76878;DHT22;65843;50.692;12.844;2023-04-28T02:07:59;19.90;44.30
76878;DHT22;65843;50.692;12.844;2023-04-28T02:09:00;20.00;44.20
76878;DHT22;65843;50.692;12.844;2023-04-28T02:10:01;20.00;44.20
76878;DHT22;65843;50.692;12.844;2023-04-28T02:11:02;19.90;44.20
76878;DHT22;65843;50.692;12.844;2023-04-28T02:12:03;19.90;44.20
76878;DHT22;65843;50.692;12.844;2023-04-28T02:13:04;19.90;44.20
76878;DHT22;65843;50.692;12.844;2023-04-28T02:14:05;20.00;44.10
76878;DHT22;65843;50.692;12.844;2023-04-28T02:15:07;19.90;44.10
76878;DHT22;65843;50.692;12.844;2023-04-28T02:16:08;19.90;44.10
76878;DHT22;65843;50.692;12.844;2023-04-28T02:17:09;20.00;44.10
76878;DHT22;65843;50.692;12.844;2023-04-28T02:18:10;19.90;44.00
76878;DHT22;65843;50.692;12.844;2023-04-28T02:19:11;19.90;44.10
76878;DHT22;65843;50.692;12.844;2023-04-28T02:20:12;19.90;44.00
76878;DHT22;65843;50.692;12.844;2023-04-28T02:21:14;19.90;44.00
76878;DHT22;65843;50.692;12.844;2023-04-28T02:22:15;19.90;44.00
76878;DHT22;65843;50.692;12.844;2023-04-28T02:23:16;19.90;44.00
76878;DHT22;65843;50.692;12.844;2023-04-28T02:24:17;19.90;44.00
76878;DHT22;65843;50.692;12.844;2023-04-28T02:25:18;19.90;44.00
76878;DHT22;65843;50.692;12.844;2023-04-28T02:26:19;19.90;44.00
76878;DHT22;65843;50.692;12.844;2023-04-28T02:27:20;19.90;44.00
76878;DHT22;65843;50.692;12.844;2023-04-28T02:28:21;19.90;43.90
76878;DHT22;65843;50.692;12.844;2023-04-28T02:29:21;19.90;43.90
76878;DHT22;65843;50.692;12.844;2023-04-28T02:30:24;19.90;43.90
76878;DHT22;65843;50.692;12.844;2023-04-28T02:31:25;19.90;43.90
76878;DHT22;65843;50.692;12.844;2023-04-28T02:32:26;19.90;43.90
76878;DHT22;65843;50.692;12.844;2023-04-28T02:33:26;19.90;43.80
76878;DHT22;65843;50.692;12.844;2023-04-28T02:34:28;19.90;43.80
76878;DHT22;65843;50.692;12.844;2023-04-28T02:35:28;19.90;43.80
76878;DHT22;65843;50.692;12.844;2023-04-28T02:36:29;19.90;43.80
76878;DHT22;65843;50.692;12.844;2023-04-28T02:37:32;19.90;43.80
76878;DHT22;65843;50.692;12.844;2023-04-28T02:38:33;19.90;43.80
76878;DHT22;65843;50.692;12.844;2023-04-28T02:39:34;19.90;43.80
76878;DHT22;65843;50.692;12.844;2023-04-28T02:40:35;19.90;43.90
76878;DHT22;65843;50.692;12.844;2023-04-28T02:41:36;19.90;43.80
76878;DHT22;65843;50.692;12.844;2023-04-28T02:42:36;19.90;43.80
76878;DHT22;65843;50.692;12.844;2023-04-28T02:43:37;19.90;43.70
76878;DHT22;65843;50.692;12.844;2023-04-28T02:44:38;19.90;43.70
76878;DHT22;65843;50.692;12.844;2023-04-28T02:45:39;19.90;43.80
76878;DHT22;65843;50.692;12.844;2023-04-28T02:46:40;19.90;43.70
76878;DHT22;65843;50.692;12.844;2023-04-28T02:47:41;19.90;43.70
76878;DHT22;65843;50.692;12.844;2023-04-28T02:48:42;19.90;43.70
76878;DHT22;65843;50.692;12.844;2023-04-28T02:49:43;19.90;43.70
76878;DHT22;65843;50.692;12.844;2023-04-28T02:50:44;19.90;43.70
76878;DHT22;65843;50.692;12.844;2023-04-28T02:51:48;19.90;43.70
76878;DHT22;65843;50.692;12.844;2023-04-28T02:52:48;19.90;43.90
76878;DHT22;65843;50.692;12.844;2023-04-28T02:53:49;19.90;43.70
76878;DHT22;65843;50.692;12.844;2023-04-28T02:54:50;19.90;43.70
76878;DHT22;65843;50.692;12.844;2023-04-28T02:55:54;19.90;43.70
76878;DHT22;65843;50.692;12.844;2023-04-28T02:56:55;19.90;43.70
76878;DHT22;65843;50.692;12.844;2023-04-28T02:57:56;19.90;43.60
76878;DHT22;65843;50.692;12.844;2023-04-28T02:58:57;19.90;43.60
76878;DHT22;65843;50.692;12.844;2023-04-28T02:59:58;19.90;43.60
76878;DHT22;65843;50.692;12.844;2023-04-28T03:00:59;19.90;43.60
76878;DHT22;65843;50.692;12.844;2023-04-28T03:02:00;19.90;43.60
76878;DHT22;65843;50.692;12.844;2023-04-28T03:03:01;19.90;43.60
76878;DHT22;65843;50.692;12.844;2023-04-28T03:04:02;19.90;43.60
76878;DHT22;65843;50.692;12.844;2023-04-28T03:05:03;19.90;43.60
76878;DHT22;65843;50.692;12.844;2023-04-28T03:06:04;19.90;43.50
76878;DHT22;65843;50.692;12.844;2023-04-28T03:07:06;19.90;43.60
76878;DHT22;65843;50.692;12.844;2023-04-28T03:08:07;19.90;43.50
76878;DHT22;65843;50.692;12.844;2023-04-28T03:09:08;19.90;43.50
76878;DHT22;65843;50.692;12.844;2023-04-28T03:10:09;19.90;43.50
76878;DHT22;65843;50.692;12.844;2023-04-28T03:11:10;19.90;43.50
76878;DHT22;65843;50.692;12.844;2023-04-28T03:12:11;19.90;43.50
76878;DHT22;65843;50.692;12.844;2023-04-28T03:13:12;19.90;43.50
76878;DHT22;65843;50.692;12.844;2023-04-28T03:14:13;19.90;43.50
76878;DHT22;65843;50.692;12.844;2023-04-28T03:15:14;19.90;43.50
76878;DHT22;65843;50.692;12.844;2023-04-28T03:16:16;19.80;43.40
76878;DHT22;65843;50.692;12.844;2023-04-28T03:17:16;19.90;43.50
76878;DHT22;65843;50.692;12.844;2023-04-28T03:18:17;19.80;43.50
76878;DHT22;65843;50.692;12.844;2023-04-28T03:19:18;19.90;43.40
76878;DHT22;65843;50.692;12.844;2023-04-28T03:20:19;19.90;43.40
76878;DHT22;65843;50.692;12.844;2023-04-28T03:21:20;19.90;43.40
76878;DHT22;65843;50.692;12.844;2023-04-28T03:22:21;19.90;43.50
76878;DHT22;65843;50.692;12.844;2023-04-28T03:23:22;19.80;43.50
76878;DHT22;65843;50.692;12.844;2023-04-28T03:24:23;19.80;43.50
76878;DHT22;65843;50.692;12.844;2023-04-28T03:25:24;19.80;43.40
76878;DHT22;65843;50.692;12.844;2023-04-28T03:26:25;19.80;43.50
76878;DHT22;65843;50.692;12.844;2023-04-28T03:27:26;19.90;43.50
76878;DHT22;65843;50.692;12.844;2023-04-28T03:28:27;19.80;43.50
76878;DHT22;65843;50.692;12.844;2023-04-28T03:29:28;19.90;43.50
76878;DHT22;65843;50.692;12.844;2023-04-28T03:30:29;19.90;43.50
76878;DHT22;65843;50.692;12.844;2023-04-28T03:31:30;19.90;43.60
76878;DHT22;65843;50.692;12.844;2023-04-28T03:32:31;19.80;43.50
76878;DHT22;65843;50.692;12.844;2023-04-28T03:33:32;19.90;43.50
76878;DHT22;65843;50.692;12.844;2023-04-28T03:34:33;19.90;43.50
76878;DHT22;65843;50.692;12.844;2023-04-28T03:35:34;19.90;43.50
76878;DHT22;65843;50.692;12.844;2023-04-28T03:36:35;19.90;43.40
76878;DHT22;65843;50.692;12.844;2023-04-28T03:37:36;19.80;43.40
76878;DHT22;65843;50.692;12.844;2023-04-28T03:38:37;19.90;43.40
76878;DHT22;65843;50.692;12.844;2023-04-28T03:39:38;19.80;43.40
76878;DHT22;65843;50.692;12.844;2023-04-28T03:40:39;19.90;43.40
76878;DHT22;65843;50.692;12.844;2023-04-28T03:41:40;19.80;43.30
76878;DHT22;65843;50.692;12.844;2023-04-28T03:42:41;19.90;43.30
76878;DHT22;65843;50.692;12.844;2023-04-28T03:43:42;19.80;43.30
76878;DHT22;65843;50.692;12.844;2023-04-28T03:44:43;19.90;43.40
76878;DHT22;65843;50.692;12.844;2023-04-28T03:45:44;19.80;43.30
76878;DHT22;65843;50.692;12.844;2023-04-28T03:46:45;19.80;43.30
76878;DHT22;65843;50.692;12.844;2023-04-28T03:47:46;19.80;43.30
76878;DHT22;65843;50.692;12.844;2023-04-28T03:48:47;19.80;43.40
76878;DHT22;65843;50.692;12.844;2023-04-28T03:49:48;19.80;43.30
76878;DHT22;65843;50.692;12.844;2023-04-28T03:50:49;19.80;43.30
76878;DHT22;65843;50.692;12.844;2023-04-28T03:51:50;19.80;43.30
76878;DHT22;65843;50.692;12.844;2023-04-28T03:52:51;19.80;43.20
76878;DHT22;65843;50.692;12.844;2023-04-28T03:53:52;19.80;43.20
76878;DHT22;65843;50.692;12.844;2023-04-28T03:54:53;19.80;43.20
76878;DHT22;65843;50.692;12.844;2023-04-28T03:55:54;19.80;43.30
76878;DHT22;65843;50.692;12.844;2023-04-28T03:56:55;19.80;43.20
76878;DHT22;65843;50.692;12.844;2023-04-28T03:57:57;19.80;43.20
76878;DHT22;65843;50.692;12.844;2023-04-28T03:58:58;19.70;43.20
76878;DHT22;65843;50.692;12.844;2023-04-28T03:59:59;19.70;43.20
76878;DHT22;65843;50.692;12.844;2023-04-28T04:01:00;19.70;43.20
76878;DHT22;65843;50.692;12.844;2023-04-28T04:02:01;19.70;43.10
76878;DHT22;65843;50.692;12.844;2023-04-28T04:03:01;19.70;43.10
76878;DHT22;65843;50.692;12.844;2023-04-28T04:04:03;19.70;43.10
76878;DHT22;65843;50.692;12.844;2023-04-28T04:05:04;19.70;43.20
76878;DHT22;65843;50.692;12.844;2023-04-28T04:06:05;19.70;43.00
76878;DHT22;65843;50.692;12.844;2023-04-28T04:07:06;19.70;43.10
76878;DHT22;65843;50.692;12.844;2023-04-28T04:08:07;19.70;43.20
76878;DHT22;65843;50.692;12.844;2023-04-28T04:09:09;19.70;43.00
76878;DHT22;65843;50.692;12.844;2023-04-28T04:10:09;19.70;43.10
76878;DHT22;65843;50.692;12.844;2023-04-28T04:11:11;19.70;43.00
76878;DHT22;65843;50.692;12.844;2023-04-28T04:12:11;19.70;43.00
76878;DHT22;65843;50.692;12.844;2023-04-28T04:13:12;19.70;43.10
76878;DHT22;65843;50.692;12.844;2023-04-28T04:14:13;19.70;43.10
76878;DHT22;65843;50.692;12.844;2023-04-28T04:15:14;19.70;43.00
76878;DHT22;65843;50.692;12.844;2023-04-28T04:16:15;19.70;43.00
76878;DHT22;65843;50.692;12.844;2023-04-28T04:17:16;19.70;43.00
76878;DHT22;65843;50.692;12.844;2023-04-28T04:18:17;19.70;43.00
76878;DHT22;65843;50.692;12.844;2023-04-28T04:19:18;19.60;43.00
76878;DHT22;65843;50.692;12.844;2023-04-28T04:20:19;19.60;43.00
76878;DHT22;65843;50.692;12.844;2023-04-28T04:21:20;19.60;43.00
76878;DHT22;65843;50.692;12.844;2023-04-28T04:22:21;19.60;43.00
76878;DHT22;65843;50.692;12.844;2023-04-28T04:23:22;19.60;43.00
76878;DHT22;65843;50.692;12.844;2023-04-28T04:24:23;19.60;43.00
76878;DHT22;65843;50.692;12.844;2023-04-28T04:25:24;19.50;43.00
76878;DHT22;65843;50.692;12.844;2023-04-28T04:26:24;19.50;43.00
76878;DHT22;65843;50.692;12.844;2023-04-28T04:27:26;19.50;42.90
76878;DHT22;65843;50.692;12.844;2023-04-28T04:28:27;19.50;42.90
76878;DHT22;65843;50.692;12.844;2023-04-28T04:29:27;19.50;42.90
76878;DHT22;65843;50.692;12.844;2023-04-28T04:30:28;19.50;42.90
76878;DHT22;65843;50.692;12.844;2023-04-28T04:31:32;19.50;42.90
76878;DHT22;65843;50.692;12.844;2023-04-28T04:32:33;19.50;42.80
76878;DHT22;65843;50.692;12.844;2023-04-28T04:33:34;19.50;42.80
76878;DHT22;65843;50.692;12.844;2023-04-28T04:34:36;19.50;42.70
76878;DHT22;65843;50.692;12.844;2023-04-28T04:35:37;19.50;42.80
76878;DHT22;65843;50.692;12.844;2023-04-28T04:36:39;19.50;42.70
76878;DHT22;65843;50.692;12.844;2023-04-28T04:37:39;19.50;42.70
76878;DHT22;65843;50.692;12.844;2023-04-28T04:38:40;19.50;42.70
76878;DHT22;65843;50.692;12.844;2023-04-28T04:39:41;19.50;42.70
76878;DHT22;65843;50.692;12.844;2023-04-28T04:40:42;19.50;42.60
76878;DHT22;65843;50.692;12.844;2023-04-28T04:41:43;19.50;42.60
76878;DHT22;65843;50.692;12.844;2023-04-28T04:42:44;19.50;42.60
76878;DHT22;65843;50.692;12.844;2023-04-28T04:43:45;19.50;42.80
76878;DHT22;65843;50.692;12.844;2023-04-28T04:44:46;19.50;43.00
76878;DHT22;65843;50.692;12.844;2023-04-28T04:45:47;19.50;43.00
76878;DHT22;65843;50.692;12.844;2023-04-28T04:46:48;19.50;43.00
76878;DHT22;65843;50.692;12.844;2023-04-28T04:47:49;19.50;43.10
76878;DHT22;65843;50.692;12.844;2023-04-28T04:48:50;19.50;43.10
76878;DHT22;65843;50.692;12.844;2023-04-28T04:49:51;19.60;43.10
76878;DHT22;65843;50.692;12.844;2023-04-28T04:50:52;19.60;43.00
76878;DHT22;65843;50.692;12.844;2023-04-28T04:51:53;19.60;43.00
76878;DHT22;65843;50.692;12.844;2023-04-28T04:52:54;19.70;43.00
76878;DHT22;65843;50.692;12.844;2023-04-28T04:53:57;19.70;43.00
76878;DHT22;65843;50.692;12.844;2023-04-28T04:54:58;19.70;43.00
76878;DHT22;65843;50.692;12.844;2023-04-28T04:55:59;19.70;43.00
76878;DHT22;65843;50.692;12.844;2023-04-28T04:57:00;19.70;43.00
76878;DHT22;65843;50.692;12.844;2023-04-28T04:58:02;19.70;43.00
76878;DHT22;65843;50.692;12.844;2023-04-28T04:59:03;19.70;43.10
76878;DHT22;65843;50.692;12.844;2023-04-28T05:00:04;19.70;43.20
76878;DHT22;65843;50.692;12.844;2023-04-28T05:01:05;19.70;43.10
76878;DHT22;65843;50.692;12.844;2023-04-28T05:02:06;19.70;43.20
76878;DHT22;65843;50.692;12.844;2023-04-28T05:03:07;19.70;43.20
76878;DHT22;65843;50.692;12.844;2023-04-28T05:04:09;19.70;43.30
76878;DHT22;65843;50.692;12.844;2023-04-28T05:05:09;19.70;43.30
76878;DHT22;65843;50.692;12.844;2023-04-28T05:06:10;19.70;43.30
76878;DHT22;65843;50.692;12.844;2023-04-28T05:07:11;19.80;43.30
76878;DHT22;65843;50.692;12.844;2023-04-28T05:08:12;19.80;43.40
76878;DHT22;65843;50.692;12.844;2023-04-28T05:09:13;19.90;43.40
76878;DHT22;65843;50.692;12.844;2023-04-28T05:10:14;19.90;43.30
76878;DHT22;65843;50.692;12.844;2023-04-28T05:11:15;20.00;43.40
76878;DHT22;65843;50.692;12.844;2023-04-28T05:12:16;20.00;43.30
76878;DHT22;65843;50.692;12.844;2023-04-28T05:13:17;20.00;43.40
76878;DHT22;65843;50.692;12.844;2023-04-28T05:14:18;20.00;43.40
76878;DHT22;65843;50.692;12.844;2023-04-28T05:15:20;20.00;43.30
76878;DHT22;65843;50.692;12.844;2023-04-28T05:16:21;20.10;43.30
76878;DHT22;65843;50.692;12.844;2023-04-28T05:17:22;20.10;43.30
76878;DHT22;65843;50.692;12.844;2023-04-28T05:18:23;20.10;43.30
76878;DHT22;65843;50.692;12.844;2023-04-28T05:19:24;20.10;43.30
76878;DHT22;65843;50.692;12.844;2023-04-28T05:20:25;20.10;43.40
76878;DHT22;65843;50.692;12.844;2023-04-28T05:21:26;20.10;43.30
76878;DHT22;65843;50.692;12.844;2023-04-28T05:22:27;20.20;43.30
76878;DHT22;65843;50.692;12.844;2023-04-28T05:23:29;20.20;43.40
76878;DHT22;65843;50.692;12.844;2023-04-28T05:24:30;20.20;43.40
76878;DHT22;65843;50.692;12.844;2023-04-28T05:25:31;20.20;43.40
76878;DHT22;65843;50.692;12.844;2023-04-28T05:26:32;20.20;43.40
76878;DHT22;65843;50.692;12.844;2023-04-28T05:27:33;20.30;43.40
76878;DHT22;65843;50.692;12.844;2023-04-28T05:28:38;20.30;43.40
76878;DHT22;65843;50.692;12.844;2023-04-28T05:29:39;20.30;43.40
76878;DHT22;65843;50.692;12.844;2023-04-28T05:30:40;20.30;43.50
76878;DHT22;65843;50.692;12.844;2023-04-28T05:31:41;20.30;43.50
76878;DHT22;65843;50.692;12.844;2023-04-28T05:32:41;20.30;43.40
76878;DHT22;65843;50.692;12.844;2023-04-28T05:33:42;20.30;43.40
76878;DHT22;65843;50.692;12.844;2023-04-28T05:34:43;20.30;43.50
76878;DHT22;65843;50.692;12.844;2023-04-28T05:35:44;20.30;43.40
76878;DHT22;65843;50.692;12.844;2023-04-28T05:36:45;20.30;43.40
76878;DHT22;65843;50.692;12.844;2023-04-28T05:37:46;20.30;43.40
76878;DHT22;65843;50.692;12.844;2023-04-28T05:38:47;20.30;43.40
76878;DHT22;65843;50.692;12.844;2023-04-28T05:39:48;20.30;43.40
76878;DHT22;65843;50.692;12.844;2023-04-28T05:40:49;20.30;43.50
76878;DHT22;65843;50.692;12.844;2023-04-28T05:41:50;20.30;43.50
76878;DHT22;65843;50.692;12.844;2023-04-28T05:42:51;20.30;43.50
76878;DHT22;65843;50.692;12.844;2023-04-28T05:43:52;20.30;43.50
76878;DHT22;65843;50.692;12.844;2023-04-28T05:44:53;20.30;43.50
76878;DHT22;65843;50.692;12.844;2023-04-28T05:45:54;20.30;43.40
76878;DHT22;65843;50.692;12.844;2023-04-28T05:46:55;20.30;43.40
76878;DHT22;65843;50.692;12.844;2023-04-28T05:47:55;20.30;43.50
76878;DHT22;65843;50.692;12.844;2023-04-28T05:48:56;20.30;43.40
76878;DHT22;65843;50.692;12.844;2023-04-28T05:49:57;20.30;43.50
76878;DHT22;65843;50.692;12.844;2023-04-28T05:50:58;20.30;43.50
76878;DHT22;65843;50.692;12.844;2023-04-28T05:51:59;20.30;43.50
76878;DHT22;65843;50.692;12.844;2023-04-28T05:53:00;20.30;43.50
76878;DHT22;65843;50.692;12.844;2023-04-28T05:54:01;20.30;43.50
76878;DHT22;65843;50.692;12.844;2023-04-28T05:55:02;20.30;43.50
76878;DHT22;65843;50.692;12.844;2023-04-28T05:56:03;20.30;43.50
76878;DHT22;65843;50.692;12.844;2023-04-28T05:57:04;20.30;43.50
76878;DHT22;65843;50.692;12.844;2023-04-28T05:58:05;20.30;43.50
76878;DHT22;65843;50.692;12.844;2023-04-28T05:59:07;20.30;43.50
76878;DHT22;65843;50.692;12.844;2023-04-28T06:00:09;20.30;43.50
76878;DHT22;65843;50.692;12.844;2023-04-28T06:01:11;20.30;43.50
76878;DHT22;65843;50.692;12.844;2023-04-28T06:02:11;20.30;43.50
76878;DHT22;65843;50.692;12.844;2023-04-28T06:03:12;20.30;43.40
76878;DHT22;65843;50.692;12.844;2023-04-28T06:04:15;20.30;43.50
76878;DHT22;65843;50.692;12.844;2023-04-28T06:05:16;20.30;43.60
76878;DHT22;65843;50.692;12.844;2023-04-28T06:06:17;20.30;43.50
76878;DHT22;65843;50.692;12.844;2023-04-28T06:07:18;20.30;43.50
76878;DHT22;65843;50.692;12.844;2023-04-28T06:08:19;20.30;43.50
76878;DHT22;65843;50.692;12.844;2023-04-28T06:09:19;20.30;43.50
76878;DHT22;65843;50.692;12.844;2023-04-28T06:10:21;20.30;43.50
76878;DHT22;65843;50.692;12.844;2023-04-28T06:11:22;20.30;43.50
76878;DHT22;65843;50.692;12.844;2023-04-28T06:12:23;20.30;43.50
76878;DHT22;65843;50.692;12.844;2023-04-28T06:13:24;20.30;43.60
76878;DHT22;65843;50.692;12.844;2023-04-28T06:14:24;20.30;43.50
76878;DHT22;65843;50.692;12.844;2023-04-28T06:15:25;20.30;43.60
76878;DHT22;65843;50.692;12.844;2023-04-28T06:16:27;20.30;43.50
76878;DHT22;65843;50.692;12.844;2023-04-28T06:17:28;20.30;43.60
76878;DHT22;65843;50.692;12.844;2023-04-28T06:18:30;20.30;43.60
76878;DHT22;65843;50.692;12.844;2023-04-28T06:19:34;20.30;43.60